createdAt,value
2022-07-30T00:00:57.602Z,4.90
2022-07-30T00:03:30.102Z,4.40
2022-07-30T00:06:02.821Z,4.60
2022-07-30T00:08:35.361Z,5.00
2022-07-30T00:11:08.073Z,4.60
2022-07-30T00:13:40.579Z,5.00
2022-07-30T00:16:13.395Z,4.90
2022-07-30T00:18:46.116Z,4.80
2022-07-30T00:21:20.366Z,4.50
2022-07-30T00:24:09.962Z,5.20
2022-07-30T00:26:42.882Z,4.40
2022-07-30T00:29:15.454Z,4.10
2022-07-30T00:31:47.993Z,4.40
2022-07-30T00:34:20.460Z,4.50
2022-07-30T00:36:53.084Z,4.90
2022-07-30T00:39:25.667Z,4.60
2022-07-30T00:42:00.861Z,5.10
2022-07-30T00:44:33.377Z,4.70
2022-07-30T00:47:06.347Z,4.60
2022-07-30T00:49:43.931Z,5.40
2022-07-30T00:52:17.072Z,4.50
2022-07-30T00:54:49.605Z,4.40
2022-07-30T00:57:22.077Z,4.60
2022-07-30T00:59:55.929Z,4.60
2022-07-30T01:02:28.652Z,4.60
2022-07-30T01:05:01.237Z,4.40
2022-07-30T01:07:34.007Z,4.30
2022-07-30T01:10:08.566Z,4.30
2022-07-30T01:12:42.339Z,4.10
2022-07-30T01:15:15.095Z,3.90
2022-07-30T01:17:52.996Z,4.00
2022-07-30T01:20:28.644Z,4.20
2022-07-30T01:23:09.775Z,4.00
2022-07-30T01:25:55.600Z,4.20
2022-07-30T01:28:34.166Z,4.70
2022-07-30T01:31:08.463Z,4.80
2022-07-30T01:33:44.454Z,4.10
2022-07-30T01:36:19.710Z,3.70
2022-07-30T01:38:54.381Z,4.50
2022-07-30T01:41:30.956Z,4.00
2022-07-30T01:44:04.665Z,4.60
2022-07-30T01:46:38.700Z,4.20
2022-07-30T01:49:13.141Z,4.20
2022-07-30T01:51:49.253Z,4.10
2022-07-30T01:54:23.054Z,3.90
2022-07-30T01:57:10.955Z,4.20
2022-07-30T01:59:48.247Z,4.30
2022-07-30T02:02:21.054Z,4.50
2022-07-30T02:04:53.674Z,4.10
2022-07-30T02:07:34.045Z,4.40
2022-07-30T02:10:12.404Z,3.90
2022-07-30T02:12:53.928Z,4.10
2022-07-30T02:15:31.562Z,3.70
2022-07-30T02:18:09.630Z,4.40
2022-07-30T02:20:49.530Z,4.60
2022-07-30T02:23:25.138Z,3.80
2022-07-30T02:26:01.089Z,4.00
2022-07-30T02:28:36.260Z,4.10
2022-07-30T02:31:17.098Z,3.80
2022-07-30T02:33:54.272Z,4.50
2022-07-30T02:36:28.210Z,4.30
2022-07-30T02:39:03.553Z,4.30
2022-07-30T02:41:37.489Z,4.30
2022-07-30T02:44:11.497Z,4.00
2022-07-30T02:46:44.686Z,4.30
2022-07-30T02:49:19.957Z,4.00
2022-07-30T02:51:53.191Z,4.10
2022-07-30T02:54:31.318Z,4.00
2022-07-30T02:57:05.555Z,4.20
2022-07-30T02:59:41.356Z,4.30
2022-07-30T03:02:29.102Z,4.10
2022-07-30T03:05:12.258Z,4.50
2022-07-30T03:07:46.971Z,4.40
2022-07-30T03:10:20.224Z,4.30
2022-07-30T03:12:54.261Z,4.10
2022-07-30T03:15:27.875Z,4.30
2022-07-30T03:18:02.218Z,4.40
2022-07-30T03:20:37.631Z,4.00
2022-07-30T03:23:13.169Z,4.00
2022-07-30T03:25:48.021Z,3.90
2022-07-30T03:28:23.515Z,4.20
2022-07-30T03:30:56.637Z,4.40
2022-07-30T03:33:38.818Z,4.00
2022-07-30T03:36:13.903Z,4.40
2022-07-30T03:38:48.860Z,4.50
2022-07-30T03:41:22.734Z,4.50
2022-07-30T03:43:56.813Z,4.10
2022-07-30T03:46:30.569Z,4.20
2022-07-30T03:49:04.237Z,3.80
2022-07-30T03:51:38.271Z,4.40
2022-07-30T03:54:13.696Z,4.30
2022-07-30T03:56:46.887Z,4.80
2022-07-30T03:59:19.470Z,4.00
2022-07-30T04:01:55.817Z,4.20
2022-07-30T04:04:36.550Z,4.40
2022-07-30T04:07:09.285Z,4.20
2022-07-30T04:09:42.160Z,4.50
2022-07-30T04:12:15.124Z,4.70
2022-07-30T04:14:51.084Z,4.30
2022-07-30T04:17:27.484Z,4.40
2022-07-30T04:20:07.563Z,4.90
2022-07-30T04:22:41.754Z,4.50
2022-07-30T04:25:24.198Z,4.60
2022-07-30T04:28:03.688Z,5.80
2022-07-30T04:30:37.082Z,4.20
2022-07-30T04:33:10.599Z,4.60
2022-07-30T04:35:51.114Z,5.00
2022-07-30T04:38:25.816Z,5.10
2022-07-30T04:40:58.296Z,5.70
2022-07-30T04:43:30.737Z,4.70
2022-07-30T04:46:03.448Z,5.10
2022-07-30T04:48:35.901Z,5.20
2022-07-30T04:51:14.225Z,6.20
2022-07-30T04:53:48.281Z,6.20
2022-07-30T04:56:22.146Z,5.80
2022-07-30T04:58:56.052Z,6.00
2022-07-30T05:01:41.016Z,5.30
2022-07-30T05:04:14.277Z,5.20
2022-07-30T05:06:47.317Z,6.00
2022-07-30T05:09:21.514Z,5.80
2022-07-30T05:11:57.811Z,5.50
2022-07-30T05:14:30.420Z,5.50
2022-07-30T05:17:03.428Z,6.30
2022-07-30T05:19:36.362Z,5.50
2022-07-30T05:22:08.881Z,6.10
2022-07-30T05:24:46.928Z,5.50
2022-07-30T05:27:22.323Z,5.60
2022-07-30T05:30:00.436Z,5.00
2022-07-30T05:32:33.251Z,6.30
2022-07-30T05:35:06.068Z,5.10
2022-07-30T05:37:38.581Z,5.60
2022-07-30T05:40:13.173Z,5.20
2022-07-30T05:42:46.406Z,5.50
2022-07-30T05:45:19.399Z,6.00
2022-07-30T05:47:51.961Z,5.30
2022-07-30T05:50:24.634Z,5.50
2022-07-30T05:52:58.689Z,6.10
2022-07-30T05:55:31.153Z,6.50
2022-07-30T05:58:08.014Z,6.00
2022-07-30T06:00:41.184Z,5.50
2022-07-30T06:03:14.082Z,5.70
2022-07-30T06:05:46.921Z,5.80
2022-07-30T06:08:19.450Z,5.60
2022-07-30T06:10:51.854Z,5.70
2022-07-30T06:13:25.178Z,5.90
2022-07-30T06:15:57.779Z,5.70
2022-07-30T06:18:30.605Z,6.30
2022-07-30T06:21:03.185Z,6.80
2022-07-30T06:23:38.496Z,6.60
2022-07-30T06:26:11.391Z,6.70
2022-07-30T06:28:43.807Z,6.20
2022-07-30T06:31:16.512Z,6.90
2022-07-30T06:33:52.763Z,7.00
2022-07-30T06:36:25.271Z,6.40
2022-07-30T06:38:57.860Z,5.80
2022-07-30T06:41:30.519Z,6.80
2022-07-30T06:44:03.168Z,6.10
2022-07-30T06:46:35.910Z,6.60
2022-07-30T06:49:08.541Z,7.10
2022-07-30T06:51:41.576Z,6.50
2022-07-30T06:54:16.013Z,6.60
2022-07-30T06:56:48.750Z,6.10
2022-07-30T06:59:22.090Z,6.00
2022-07-30T07:01:55.191Z,6.50
2022-07-30T07:04:28.307Z,6.00
2022-07-30T07:07:01.579Z,6.40
2022-07-30T07:09:45.177Z,5.70
2022-07-30T07:12:17.706Z,6.60
2022-07-30T07:14:50.230Z,6.40
2022-07-30T07:17:23.138Z,6.10
2022-07-30T07:20:01.336Z,5.90
2022-07-30T07:22:34.949Z,5.90
2022-07-30T07:25:08.807Z,6.10
2022-07-30T07:27:41.837Z,6.50
2022-07-30T07:30:15.431Z,6.20
2022-07-30T07:32:48.263Z,6.20
2022-07-30T07:35:20.998Z,5.50
2022-07-30T07:37:53.590Z,6.00
2022-07-30T07:40:26.675Z,5.70
2022-07-30T07:42:59.271Z,6.30
2022-07-30T07:45:32.084Z,5.80
2022-07-30T07:48:04.881Z,5.70
2022-07-30T07:50:37.850Z,6.30
2022-07-30T07:53:10.423Z,6.40
2022-07-30T07:55:43.002Z,7.00
2022-07-30T07:58:17.581Z,5.80
2022-07-30T08:00:58.168Z,5.60
2022-07-30T08:03:30.557Z,5.70
2022-07-30T08:06:06.326Z,5.90
2022-07-30T08:08:43.290Z,5.30
2022-07-30T08:13:56.196Z,5.50
2022-07-30T08:16:29.411Z,5.60
2022-07-30T08:19:07.016Z,5.50
2022-07-30T08:21:39.809Z,5.70
2022-07-30T08:24:13.207Z,5.50
2022-07-30T08:26:46.097Z,5.30
2022-07-30T08:29:18.793Z,5.50
2022-07-30T08:31:51.758Z,5.60
2022-07-30T08:34:25.780Z,5.80
2022-07-30T08:36:58.642Z,5.50
2022-07-30T08:39:40.034Z,5.30
2022-07-30T08:42:14.990Z,5.10
2022-07-30T08:44:48.071Z,5.10
2022-07-30T08:47:23.057Z,5.30
2022-07-30T08:49:56.725Z,5.20
2022-07-30T08:52:36.988Z,5.10
2022-07-30T08:55:11.344Z,5.20
2022-07-30T08:57:44.780Z,5.50
2022-07-30T09:00:19.100Z,5.10
2022-07-30T09:03:44.329Z,5.40
2022-07-30T09:06:18.396Z,5.00
2022-07-30T09:08:50.918Z,5.40
2022-07-30T09:11:24.053Z,5.30
2022-07-30T09:14:08.792Z,5.30
2022-07-30T09:16:44.311Z,5.30
2022-07-30T09:19:21.879Z,5.10
2022-07-30T09:22:02.985Z,5.10
2022-07-30T09:24:44.642Z,5.00
2022-07-30T09:27:17.353Z,5.00
2022-07-30T09:30:00.398Z,5.30
2022-07-30T09:32:50.820Z,5.20
2022-07-30T09:35:23.967Z,5.10
2022-07-30T09:38:06.507Z,5.00
2022-07-30T09:40:42.866Z,5.10
2022-07-30T09:43:15.826Z,5.40
2022-07-30T09:45:57.979Z,5.20
2022-07-30T09:48:31.685Z,4.90
2022-07-30T09:51:04.582Z,5.40
2022-07-30T09:53:38.050Z,5.20
2022-07-30T09:56:27.704Z,4.80
2022-07-30T09:59:02.938Z,5.20
2022-07-30T10:01:59.197Z,5.10
2022-07-30T10:04:34.532Z,5.10
2022-07-30T10:07:25.290Z,5.10
2022-07-30T10:10:02.618Z,5.00
2022-07-30T10:12:41.058Z,4.80
2022-07-30T10:15:14.979Z,4.50
2022-07-30T10:17:48.679Z,4.90
2022-07-30T10:20:21.736Z,5.10
2022-07-30T10:22:54.305Z,4.40
2022-07-30T10:25:28.444Z,4.70
2022-07-30T10:28:03.313Z,4.80
2022-07-30T10:30:36.565Z,4.70
2022-07-30T10:33:36.438Z,4.40
2022-07-30T10:36:05.208Z,4.90
2022-07-30T10:38:41.612Z,5.00
2022-07-30T10:41:42.829Z,4.80
2022-07-30T10:44:57.862Z,4.40
2022-07-30T10:47:33.556Z,4.90
2022-07-30T10:50:12.439Z,4.80
2022-07-30T10:52:53.434Z,4.50
2022-07-30T10:55:36.550Z,4.70
2022-07-30T10:58:15.577Z,4.90
2022-07-30T11:01:01.907Z,4.90
2022-07-30T11:03:41.070Z,5.10
2022-07-30T11:06:30.853Z,4.80
2022-07-30T11:09:03.664Z,4.80
2022-07-30T11:12:16.323Z,4.50
2022-07-30T11:15:07.220Z,4.90
2022-07-30T11:18:12.881Z,4.70
2022-07-30T11:21:15.331Z,4.80
2022-07-30T11:23:49.485Z,4.60
2022-07-30T11:26:51.618Z,4.30
2022-07-30T11:29:50.519Z,4.50
2022-07-30T11:32:36.862Z,5.10
2022-07-30T11:35:22.990Z,4.70
2022-07-30T11:38:08.924Z,4.80
2022-07-30T11:41:02.347Z,4.20
2022-07-30T11:43:37.036Z,4.50
2022-07-30T11:46:10.939Z,4.80
2022-07-30T11:49:00.263Z,4.50
2022-07-30T11:51:43.742Z,4.80
2022-07-30T11:54:16.861Z,4.40
2022-07-30T11:57:04.286Z,4.40
2022-07-30T11:59:55.959Z,4.50
2022-07-30T12:02:31.369Z,4.30
2022-07-30T12:05:04.844Z,4.20
2022-07-30T12:07:37.186Z,4.40
2022-07-30T12:10:27.102Z,4.30
2022-07-30T12:13:15.292Z,4.10
2022-07-30T12:15:49.175Z,4.70
2022-07-30T12:18:29.582Z,4.30
2022-07-30T12:21:03.696Z,4.30
2022-07-30T12:23:36.678Z,4.50
2022-07-30T12:26:09.223Z,4.50
2022-07-30T12:28:41.679Z,4.00
2022-07-30T12:31:17.833Z,4.20
2022-07-30T12:33:50.339Z,4.50
2022-07-30T12:36:32.083Z,4.40
2022-07-30T12:39:06.812Z,4.00
2022-07-30T12:41:46.998Z,4.30
2022-07-30T12:44:42.442Z,4.10
2022-07-30T12:47:26.801Z,4.10
2022-07-30T12:50:01.638Z,4.40
2022-07-30T12:52:36.076Z,4.00
2022-07-30T12:55:12.595Z,4.20
2022-07-30T12:58:01.705Z,4.20
2022-07-30T13:00:52.950Z,3.70
2022-07-30T13:03:27.641Z,3.70
2022-07-30T13:06:00.629Z,3.80
2022-07-30T13:08:52.039Z,4.30
2022-07-30T13:11:26.049Z,3.80
2022-07-30T13:13:58.460Z,3.70
2022-07-30T13:16:35.011Z,3.40
2022-07-30T13:19:08.250Z,3.70
2022-07-30T13:21:42.974Z,3.40
2022-07-30T13:24:22.896Z,3.70
2022-07-30T13:26:55.394Z,3.50
2022-07-30T13:29:29.206Z,3.50
2022-07-30T13:32:01.496Z,3.90
2022-07-30T13:34:33.965Z,3.80
2022-07-30T13:37:06.583Z,3.60
2022-07-30T13:39:39.039Z,3.60
2022-07-30T13:42:11.394Z,3.60
2022-07-30T13:44:44.054Z,3.40
2022-07-30T13:47:19.293Z,3.40
2022-07-30T13:49:51.870Z,3.50
2022-07-30T13:52:24.165Z,3.60
2022-07-30T13:54:56.930Z,4.00
2022-07-30T13:57:29.309Z,3.70
2022-07-30T14:00:02.156Z,3.50
2022-07-30T14:02:34.647Z,3.20
2022-07-30T14:05:08.131Z,3.60
2022-07-30T14:07:41.095Z,3.60
2022-07-30T14:10:13.710Z,3.90
2022-07-30T14:12:46.192Z,3.80
2022-07-30T14:15:19.055Z,3.40
2022-07-30T14:17:56.069Z,3.70
2022-07-30T14:20:29.499Z,3.60
2022-07-30T14:23:01.876Z,3.30
2022-07-30T14:25:34.772Z,3.70
2022-07-30T14:28:07.551Z,3.90
2022-07-30T14:30:40.097Z,3.50
2022-07-30T14:33:12.850Z,3.80
2022-07-30T14:35:45.489Z,3.80
2022-07-30T14:38:17.726Z,3.50
2022-07-30T14:40:50.317Z,3.70
2022-07-30T14:43:25.094Z,3.60
2022-07-30T14:45:57.588Z,3.80
2022-07-30T14:48:30.119Z,3.70
2022-07-30T14:51:16.011Z,3.70
2022-07-30T14:53:52.197Z,3.50
2022-07-30T14:56:25.310Z,3.60
2022-07-30T14:58:58.868Z,3.80
2022-07-30T15:01:31.781Z,3.30
2022-07-30T15:09:13.935Z,3.30
2022-07-30T15:14:40.016Z,3.70
2022-07-30T15:17:12.734Z,3.00
2022-07-30T15:19:50.375Z,3.40
2022-07-30T15:22:23.664Z,3.20
2022-07-30T15:24:56.163Z,3.40
2022-07-30T15:27:33.963Z,3.00
2022-07-30T15:30:09.040Z,3.40
2022-07-30T15:32:41.461Z,3.50
2022-07-30T15:35:14.328Z,3.20
2022-07-30T15:37:47.506Z,3.60
2022-07-30T15:40:20.248Z,3.60
2022-07-30T15:42:53.147Z,3.30
2022-07-30T15:45:25.771Z,3.40
2022-07-30T15:47:58.371Z,3.60
2022-07-30T15:50:30.712Z,3.40
2022-07-30T15:53:09.339Z,3.40
2022-07-30T15:55:46.973Z,3.50
2022-07-30T15:58:19.986Z,3.40
2022-07-30T16:00:52.479Z,3.30
2022-07-30T16:03:25.339Z,3.30
2022-07-30T16:05:58.005Z,3.30
2022-07-30T16:08:30.664Z,3.20
2022-07-30T16:11:04.578Z,3.40
2022-07-30T16:13:36.970Z,3.30
2022-07-30T16:16:09.601Z,3.30
2022-07-30T16:18:42.225Z,3.40
2022-07-30T16:21:14.943Z,3.50
2022-07-30T16:23:47.287Z,3.20
2022-07-30T16:26:20.099Z,3.60
2022-07-30T16:28:52.950Z,3.50
2022-07-30T16:31:25.892Z,3.70
2022-07-30T16:33:59.011Z,3.80
2022-07-30T16:36:31.520Z,4.20
2022-07-30T16:39:04.558Z,4.60
2022-07-30T16:41:37.040Z,5.10
2022-07-30T16:44:10.053Z,5.10
2022-07-30T16:46:42.766Z,5.50
2022-07-30T16:49:15.480Z,4.90
2022-07-30T16:51:47.878Z,5.20
2022-07-30T16:54:20.431Z,5.20
2022-07-30T16:56:53.132Z,5.10
2022-07-30T16:59:25.658Z,6.00
2022-07-30T17:01:58.291Z,5.90
2022-07-30T17:04:31.018Z,6.50
2022-07-30T17:07:03.449Z,6.40
2022-07-30T17:09:37.110Z,6.40
2022-07-30T17:12:12.215Z,6.30
2022-07-30T17:14:45.365Z,6.00
2022-07-30T17:17:18.065Z,6.10
2022-07-30T17:19:50.804Z,6.00
2022-07-30T17:22:23.653Z,5.50
2022-07-30T17:24:56.160Z,6.20
2022-07-30T17:27:31.794Z,5.70
2022-07-30T17:30:05.124Z,5.80
2022-07-30T17:32:37.621Z,5.60
2022-07-30T17:35:13.982Z,5.80
2022-07-30T17:37:46.620Z,5.90
2022-07-30T17:40:29.124Z,5.80
2022-07-30T17:43:08.045Z,6.10
2022-07-30T17:45:42.779Z,6.10
2022-07-30T17:48:15.171Z,6.00
2022-07-30T17:50:47.726Z,5.60
2022-07-30T17:53:20.148Z,5.90
2022-07-30T17:55:57.379Z,5.50
2022-07-30T17:58:32.131Z,5.80
2022-07-30T18:01:05.146Z,5.80
2022-07-30T18:03:37.784Z,5.40
2022-07-30T18:06:17.933Z,5.40
2022-07-30T18:08:50.807Z,5.90
2022-07-30T18:11:23.392Z,5.90
2022-07-30T18:13:56.950Z,5.40
2022-07-30T18:16:29.594Z,5.70
2022-07-30T18:19:02.010Z,5.60
2022-07-30T18:21:34.736Z,6.00
2022-07-30T18:24:12.987Z,5.50
2022-07-30T18:26:47.088Z,5.60
2022-07-30T18:29:20.981Z,5.80
2022-07-30T18:31:53.798Z,5.70
2022-07-30T18:35:17.698Z,6.10
2022-07-30T18:37:50.702Z,6.10
2022-07-30T18:40:24.611Z,6.50
2022-07-30T18:42:57.281Z,6.70
2022-07-30T18:45:35.239Z,6.50
2022-07-30T18:48:10.167Z,6.40
2022-07-30T18:50:42.863Z,6.60
2022-07-30T18:53:16.881Z,6.30
2022-07-30T18:55:49.216Z,6.70
2022-07-30T18:58:22.182Z,6.50
2022-07-30T19:00:57.007Z,6.50
2022-07-30T19:03:30.132Z,6.50
2022-07-30T19:06:02.449Z,6.60
2022-07-30T19:08:35.159Z,6.40
2022-07-30T19:11:07.474Z,6.60
2022-07-30T19:13:41.867Z,6.00
2022-07-30T19:16:14.427Z,6.50
2022-07-30T19:18:47.110Z,6.20
2022-07-30T19:21:19.587Z,6.40
2022-07-30T19:23:52.607Z,6.20
2022-07-30T19:26:27.127Z,6.70
2022-07-30T19:28:59.705Z,6.50
2022-07-30T19:31:32.443Z,6.50
2022-07-30T19:34:07.284Z,6.30
2022-07-30T19:36:40.089Z,6.60
2022-07-30T19:39:16.135Z,6.20
2022-07-30T19:41:54.537Z,6.70
2022-07-30T19:44:27.149Z,5.90
2022-07-30T19:47:00.110Z,6.70
2022-07-30T19:49:33.195Z,6.20
2022-07-30T19:52:23.664Z,6.50
2022-07-30T19:54:59.475Z,6.60
2022-07-30T19:57:53.112Z,6.70
2022-07-30T20:00:25.435Z,6.90
2022-07-30T20:02:58.671Z,6.70
2022-07-30T20:05:57.139Z,6.70
2022-07-30T20:08:26.342Z,6.50
2022-07-30T20:10:59.523Z,6.60
2022-07-30T20:13:44.105Z,6.40
2022-07-30T20:16:18.798Z,6.80
2022-07-30T20:18:54.824Z,7.30
2022-07-30T20:21:56.889Z,6.80
2022-07-30T20:24:21.113Z,6.10
2022-07-30T20:48:35.427Z,6.60
2022-07-30T20:51:09.481Z,6.50
2022-07-30T20:53:41.937Z,6.80
2022-07-30T20:56:19.281Z,6.40
2022-07-30T20:58:49.725Z,6.60
2022-07-30T21:01:51.138Z,6.80
2022-07-30T21:04:31.266Z,6.60
2022-07-30T21:07:08.142Z,7.10
2022-07-30T21:09:49.936Z,7.00
2022-07-30T21:12:32.868Z,6.50
2022-07-30T21:15:02.558Z,6.50
2022-07-30T21:17:38.512Z,6.30
2022-07-30T21:23:59.652Z,7.00
2022-07-30T21:26:33.209Z,6.60
2022-07-30T21:29:08.832Z,6.80
2022-07-30T21:32:00.521Z,7.00
2022-07-30T21:34:41.844Z,6.80
2022-07-30T21:37:18.710Z,6.50
2022-07-30T21:40:05.816Z,6.80
2022-07-30T21:42:57.102Z,6.50
2022-07-30T21:45:41.505Z,6.70
2022-07-30T21:48:28.886Z,6.90
2022-07-30T21:50:59.167Z,6.50
2022-07-30T21:53:45.926Z,7.60
2022-07-30T21:56:33.517Z,6.60
2022-07-30T21:59:10.356Z,6.80
2022-07-30T22:01:50.770Z,6.30
2022-07-30T22:04:27.362Z,6.30
2022-07-30T22:07:14.172Z,6.30
2022-07-30T22:09:48.817Z,5.90
2022-07-30T22:12:20.868Z,6.00
2022-07-30T22:14:56.167Z,6.20
2022-07-30T22:17:58.861Z,6.20
2022-07-30T22:20:37.401Z,5.70
2022-07-30T22:23:34.792Z,5.60
2022-07-30T22:26:09.626Z,5.40
2022-07-30T22:28:43.539Z,5.80
2022-07-30T22:31:21.430Z,5.50
2022-07-30T22:33:57.378Z,4.80
2022-07-30T22:36:31.690Z,5.40
2022-07-30T22:39:09.052Z,5.50
2022-07-30T22:41:46.477Z,4.40
2022-07-30T22:44:24.889Z,4.90
2022-07-30T22:46:58.309Z,5.00
2022-07-30T22:49:53.318Z,5.00
2022-07-30T22:52:23.026Z,4.30
2022-07-30T22:55:08.983Z,4.70
2022-07-30T22:57:46.524Z,4.50
2022-07-30T23:00:31.684Z,4.50
2022-07-30T23:03:23.659Z,4.60
2022-07-30T23:05:58.570Z,4.80
2022-07-30T23:08:43.413Z,5.30
2022-07-30T23:11:18.067Z,5.00
2022-07-30T23:14:00.496Z,5.00
2022-07-30T23:16:50.474Z,5.00
2022-07-30T23:19:25.808Z,5.00
2022-07-30T23:22:11.532Z,5.40
2022-07-30T23:25:03.284Z,5.40
2022-07-30T23:27:41.601Z,5.60
2022-07-30T23:30:20.511Z,5.30
2022-07-30T23:33:02.891Z,5.70
2022-07-30T23:35:55.122Z,5.70
2022-07-30T23:38:33.098Z,5.70
2022-07-30T23:43:32.689Z,6.90
2022-07-30T23:46:02.409Z,6.90
2022-07-30T23:48:31.791Z,6.80
2022-07-30T23:51:00.925Z,6.10
2022-07-30T23:53:30.060Z,6.50
2022-07-30T23:55:58.978Z,7.10
2022-07-30T23:58:27.916Z,6.00
